ASA22 KCEC-KLAS
Flight info
| Callsign | ASA22 |
|---|---|
| Flight time | N/A |
| Altitude | 35000 |
| Route | RUFUS Q13 LOMIA TQILA COKTL4 |
| Aircraft | B738/M-SDE2E3FGHIRWXY/LB1 |
Departure
| Time | N/A |
|---|---|
| Airport | Jack Mc Namara Field Airport (KCEC) |
Arrival
| Time | 2026-04-30 22:52 |
|---|---|
| Airport | Harry Reid International Airport (KLAS) |
| Time | Latitude | Longitude | Altitude | Speed | Heading |
|---|---|---|---|---|---|
| 2026-04-30 22:02 | 39.18440 | -119.06870 | 35004 ft | 462 kts | 140° |
| 2026-04-30 22:03 | 39.13616 | -119.01361 | 34992 ft | 463 kts | 139° |
| 2026-04-30 22:03 | 39.08974 | -118.96035 | 35002 ft | 462 kts | 139° |
| 2026-04-30 22:05 | 39.05138 | -118.91685 | 34999 ft | 462 kts | 140° |
| 2026-04-30 22:06 | 39.00287 | -118.86234 | 35007 ft | 462 kts | 140° |
| 2026-04-30 22:06 | 38.93005 | -118.78092 | 35000 ft | 462 kts | 140° |
| 2026-04-30 22:07 | 38.88171 | -118.72701 | 35000 ft | 463 kts | 140° |
| 2026-04-30 22:07 | 38.83308 | -118.67285 | 34998 ft | 462 kts | 140° |
| 2026-04-30 22:08 | 38.78446 | -118.61880 | 34999 ft | 462 kts | 140° |
| 2026-04-30 22:08 | 38.73581 | -118.56481 | 35001 ft | 462 kts | 140° |
| 2026-04-30 22:09 | 38.68707 | -118.51083 | 34991 ft | 463 kts | 140° |
| 2026-04-30 22:09 | 38.63858 | -118.45722 | 35014 ft | 464 kts | 140° |
| 2026-04-30 22:10 | 38.58964 | -118.40323 | 35007 ft | 465 kts | 140° |
| 2026-04-30 22:10 | 38.54055 | -118.34916 | 35013 ft | 466 kts | 140° |
| 2026-04-30 22:11 | 38.46680 | -118.26811 | 35003 ft | 466 kts | 140° |
| 2026-04-30 22:12 | 38.41788 | -118.21449 | 35002 ft | 466 kts | 140° |
| 2026-04-30 22:12 | 38.36868 | -118.16065 | 35000 ft | 466 kts | 140° |
| 2026-04-30 22:13 | 38.31947 | -118.10691 | 35001 ft | 465 kts | 140° |
| 2026-04-30 22:13 | 38.27032 | -118.05333 | 34998 ft | 464 kts | 140° |
| 2026-04-30 22:14 | 38.22116 | -117.99983 | 35005 ft | 464 kts | 140° |
| 2026-04-30 22:14 | 38.17210 | -117.94655 | 35005 ft | 463 kts | 140° |
| 2026-04-30 22:15 | 38.12338 | -117.89373 | 35000 ft | 463 kts | 140° |
| 2026-04-30 22:15 | 38.07431 | -117.84063 | 34994 ft | 463 kts | 140° |
| 2026-04-30 22:16 | 38.02531 | -117.78769 | 35004 ft | 462 kts | 140° |
| 2026-04-30 22:17 | 37.92763 | -117.68246 | 35000 ft | 461 kts | 140° |
| 2026-04-30 22:17 | 37.85418 | -117.60359 | 35002 ft | 461 kts | 141° |
| 2026-04-30 22:18 | 37.78086 | -117.52506 | 35001 ft | 460 kts | 141° |
| 2026-04-30 22:19 | 37.70767 | -117.44689 | 34992 ft | 461 kts | 141° |
| 2026-04-30 22:20 | 37.63399 | -117.36839 | 34998 ft | 462 kts | 141° |
| 2026-04-30 22:20 | 37.55999 | -117.28975 | 35008 ft | 464 kts | 141° |
| 2026-04-30 22:21 | 37.51087 | -117.23766 | 34997 ft | 465 kts | 141° |
| 2026-04-30 22:21 | 37.46094 | -117.18574 | 35000 ft | 464 kts | 144° |
| 2026-04-30 22:22 | 37.40764 | -117.14004 | 35004 ft | 464 kts | 148° |
| 2026-04-30 22:22 | 37.35400 | -117.09477 | 35006 ft | 463 kts | 146° |
| 2026-04-30 22:23 | 37.30099 | -117.04869 | 34996 ft | 463 kts | 146° |
| 2026-04-30 22:23 | 37.24836 | -117.00303 | 35004 ft | 461 kts | 146° |
| 2026-04-30 22:24 | 37.19554 | -116.95733 | 34997 ft | 460 kts | 146° |
| 2026-04-30 22:24 | 37.14280 | -116.91177 | 35006 ft | 459 kts | 146° |
| 2026-04-30 22:25 | 37.11653 | -116.88910 | 34342 ft | 460 kts | 146° |
| 2026-04-30 22:25 | 37.09021 | -116.86642 | 33900 ft | 456 kts | 146° |
| 2026-04-30 22:25 | 37.06404 | -116.84391 | 33355 ft | 455 kts | 146° |
| 2026-04-30 22:25 | 37.03842 | -116.82188 | 32914 ft | 451 kts | 146° |
| 2026-04-30 22:26 | 36.98705 | -116.77776 | 32017 ft | 444 kts | 147° |
| 2026-04-30 22:26 | 36.96168 | -116.75598 | 31583 ft | 440 kts | 147° |
| 2026-04-30 22:26 | 36.93650 | -116.73440 | 31151 ft | 436 kts | 147° |
| 2026-04-30 22:27 | 36.91157 | -116.71303 | 30726 ft | 433 kts | 147° |
| 2026-04-30 22:27 | 36.88682 | -116.69184 | 30299 ft | 430 kts | 147° |
| 2026-04-30 22:27 | 36.83771 | -116.64985 | 29445 ft | 424 kts | 147° |
| 2026-04-30 22:28 | 36.78976 | -116.60890 | 28588 ft | 417 kts | 147° |
| 2026-04-30 22:28 | 36.76585 | -116.58852 | 28150 ft | 413 kts | 147° |
| 2026-04-30 22:29 | 36.69546 | -116.52857 | 26890 ft | 404 kts | 147° |
| 2026-04-30 22:29 | 36.67231 | -116.50889 | 26465 ft | 401 kts | 147° |
| 2026-04-30 22:30 | 36.59474 | -116.41303 | 24835 ft | 390 kts | 131° |
| 2026-04-30 22:31 | 36.54211 | -116.33699 | 23630 ft | 382 kts | 132° |
| 2026-04-30 22:32 | 36.49000 | -116.26344 | 22444 ft | 376 kts | 132° |
| 2026-04-30 22:32 | 36.45559 | -116.21502 | 21656 ft | 371 kts | 132° |
| 2026-04-30 22:33 | 36.40462 | -116.14345 | 20485 ft | 365 kts | 132° |
| 2026-04-30 22:33 | 36.37133 | -116.09678 | 19713 ft | 361 kts | 133° |
| 2026-04-30 22:34 | 36.32183 | -116.02748 | 18578 ft | 354 kts | 133° |
| 2026-04-30 22:35 | 36.29475 | -115.98959 | 17956 ft | 351 kts | 133° |
| 2026-04-30 22:36 | 36.23296 | -115.90107 | 16961 ft | 331 kts | 129° |
| 2026-04-30 22:36 | 36.21898 | -115.87857 | 16636 ft | 329 kts | 128° |
| 2026-04-30 22:37 | 36.17745 | -115.81199 | 15644 ft | 324 kts | 129° |
| 2026-04-30 22:37 | 36.16359 | -115.79004 | 15311 ft | 323 kts | 129° |
| 2026-04-30 22:37 | 36.13336 | -115.74976 | 14629 ft | 317 kts | 152° |
| 2026-04-30 22:38 | 36.09260 | -115.73106 | 14007 ft | 311 kts | 164° |
| 2026-04-30 22:38 | 36.05138 | -115.71503 | 13345 ft | 308 kts | 164° |
| 2026-04-30 22:39 | 36.03098 | -115.70695 | 13021 ft | 307 kts | 164° |
| 2026-04-30 22:39 | 35.97054 | -115.68262 | 12074 ft | 304 kts | 163° |
| 2026-04-30 22:40 | 35.91048 | -115.65828 | 11111 ft | 301 kts | 163° |
| 2026-04-30 22:41 | 35.85113 | -115.63409 | 10232 ft | 294 kts | 163° |
| 2026-04-30 22:41 | 35.81806 | -115.60795 | 9870 ft | 285 kts | 130° |
| 2026-04-30 22:42 | 35.77104 | -115.53513 | 9344 ft | 258 kts | 128° |
| 2026-04-30 22:43 | 35.75456 | -115.49844 | 9027 ft | 248 kts | 91° |
| 2026-04-30 22:43 | 35.75397 | -115.45577 | 8587 ft | 251 kts | 91° |
| 2026-04-30 22:44 | 35.75456 | -115.41323 | 8101 ft | 249 kts | 70° |
| 2026-04-30 22:45 | 35.80142 | -115.35468 | 8047 ft | 245 kts | 39° |
| 2026-04-30 22:45 | 35.82835 | -115.32823 | 7778 ft | 253 kts | 31° |
| 2026-04-30 22:46 | 35.85808 | -115.30463 | 7184 ft | 255 kts | 31° |
| 2026-04-30 22:47 | 35.91596 | -115.26030 | 6007 ft | 226 kts | 22° |
| 2026-04-30 22:47 | 35.94354 | -115.24511 | 5386 ft | 204 kts | 21° |
| 2026-04-30 22:48 | 35.96764 | -115.23200 | 4927 ft | 175 kts | 22° |
| 2026-04-30 22:49 | 35.99779 | -115.21475 | 4202 ft | 154 kts | 21° |
| 2026-04-30 22:49 | 36.02704 | -115.19800 | 3509 ft | 153 kts | 21° |
| 2026-04-30 22:50 | 36.06547 | -115.17610 | 2521 ft | 150 kts | 21° |
| 2026-04-30 22:51 | 36.08297 | -115.16608 | 2188 ft | 117 kts | 24° |
| 2026-04-30 22:51 | 36.09261 | -115.16048 | 2187 ft | 53 kts | 25° |
| 2026-04-30 22:52 | 36.09508 | -115.15859 | 2188 ft | 24 kts | 50° |
| 2026-04-30 22:52 | 36.09527 | -115.15574 | 2191 ft | 21 kts | 115° |
| 2026-04-30 22:53 | 36.09392 | -115.15405 | 2187 ft | 12 kts | 198° |
| 2026-04-30 22:53 | 36.09247 | -115.15481 | 2190 ft | 11 kts | 206° |
| 2026-04-30 22:53 | 36.09179 | -115.15522 | 2187 ft | 11 kts | 204° |
| 2026-04-30 22:54 | 36.09042 | -115.15600 | 2188 ft | 12 kts | 205° |
| 2026-04-30 22:55 | 36.08730 | -115.15778 | 2187 ft | 18 kts | 200° |
| 2026-04-30 22:55 | 36.08511 | -115.15698 | 2187 ft | 16 kts | 155° |
| 2026-04-30 22:56 | 36.08429 | -115.15652 | 2187 ft | 0 kts | 156° |
| 2026-04-30 22:56 | 36.08347 | -115.15593 | 2189 ft | 15 kts | 118° |
| 2026-04-30 22:57 | 36.08216 | -115.15432 | 2189 ft | 14 kts | 156° |
| 2026-04-30 22:57 | 36.08128 | -115.15260 | 2190 ft | 13 kts | 85° |
| 2026-04-30 22:58 | 36.08244 | -115.15208 | 2189 ft | 8 kts | 343° |